createdAt,value
2023-07-20T00:01:26.831Z,27.72
2023-07-20T00:04:17.356Z,27.70
2023-07-20T00:07:07.009Z,27.70
2023-07-20T00:09:55.777Z,27.68
2023-07-20T00:12:48.107Z,27.65
2023-07-20T00:15:37.243Z,27.68
2023-07-20T00:18:25.921Z,27.69
2023-07-20T00:21:18.863Z,27.76
2023-07-20T00:24:08.049Z,27.82
2023-07-20T00:26:56.794Z,27.79
2023-07-20T00:29:45.930Z,27.83
2023-07-20T00:32:34.672Z,27.81
2023-07-20T00:35:23.393Z,27.83
2023-07-20T00:38:13.660Z,27.80
2023-07-20T00:41:02.417Z,27.82
2023-07-20T00:43:51.884Z,27.83
2023-07-20T00:46:42.836Z,27.82
2023-07-20T00:49:32.073Z,27.81
2023-07-20T00:52:21.555Z,27.78
2023-07-20T00:55:12.088Z,27.81
2023-07-20T00:58:01.920Z,27.81
2023-07-20T01:00:50.656Z,27.77
2023-07-20T01:03:39.815Z,27.78
2023-07-20T01:06:36.669Z,27.84
2023-07-20T01:09:31.207Z,27.87
2023-07-20T01:12:28.958Z,27.86
2023-07-20T01:15:17.772Z,27.89
2023-07-20T01:18:06.690Z,27.90
2023-07-20T01:21:01.967Z,27.90
2023-07-20T01:24:19.276Z,27.92
2023-07-20T01:27:55.118Z,27.91
2023-07-20T01:31:02.221Z,27.93
2023-07-20T01:33:54.728Z,27.92
2023-07-20T01:36:45.204Z,27.90
2023-07-20T01:39:34.925Z,27.88
2023-07-20T01:42:25.082Z,27.85
2023-07-20T01:45:13.923Z,27.87
2023-07-20T01:48:02.665Z,27.83
2023-07-20T01:50:52.767Z,27.80
2023-07-20T01:53:41.418Z,27.80
2023-07-20T01:56:30.177Z,27.76
2023-07-20T01:59:19.170Z,27.75
2023-07-20T02:02:07.929Z,27.77
2023-07-20T02:04:56.648Z,27.75
2023-07-20T02:07:46.725Z,27.73
2023-07-20T02:10:35.421Z,27.72
2023-07-20T02:13:24.085Z,27.69
2023-07-20T02:16:13.047Z,27.71
2023-07-20T02:19:01.747Z,27.66
2023-07-20T02:21:50.418Z,27.60
2023-07-20T02:24:40.534Z,27.54
2023-07-20T02:27:29.186Z,27.52
2023-07-20T02:30:18.761Z,27.52
2023-07-20T02:33:07.643Z,27.45
2023-07-20T02:35:56.510Z,27.46
2023-07-20T02:38:45.285Z,27.46
2023-07-20T02:41:36.176Z,27.46
2023-07-20T02:44:25.208Z,27.47
2023-07-20T02:47:14.750Z,27.45
2023-07-20T02:50:03.526Z,27.44
2023-07-20T02:52:52.408Z,27.44
2023-07-20T02:55:41.144Z,27.38
2023-07-20T02:58:31.213Z,27.41
2023-07-20T03:01:19.998Z,27.41
2023-07-20T03:04:09.020Z,27.41
2023-07-20T03:06:57.784Z,27.40
2023-07-20T03:09:46.501Z,27.41
2023-07-20T03:12:35.833Z,27.36
2023-07-20T03:15:25.945Z,27.36
2023-07-20T03:18:14.732Z,27.36
2023-07-20T03:21:03.547Z,27.36
2023-07-20T03:23:52.228Z,27.35
2023-07-20T03:26:41.072Z,27.32
2023-07-20T03:29:29.841Z,27.34
2023-07-20T03:32:19.992Z,27.36
2023-07-20T03:35:09.774Z,27.33
2023-07-20T03:37:58.541Z,27.27
2023-07-20T03:40:53.916Z,27.30
2023-07-20T03:43:42.685Z,27.28
2023-07-20T03:46:31.376Z,27.30
2023-07-20T03:49:21.556Z,27.29
2023-07-20T03:52:10.386Z,27.28
2023-07-20T03:54:59.171Z,27.25
2023-07-20T03:57:47.977Z,27.25
2023-07-20T04:00:37.008Z,27.26
2023-07-20T04:03:27.498Z,27.25
2023-07-20T04:06:18.702Z,27.19
2023-07-20T04:09:07.355Z,27.17
2023-07-20T04:11:56.276Z,27.11
2023-07-20T04:14:45.085Z,27.05
2023-07-20T04:17:34.044Z,27.09
2023-07-20T04:20:23.387Z,27.09
2023-07-20T04:23:13.799Z,27.13
2023-07-20T04:26:02.946Z,27.11
2023-07-20T04:28:52.768Z,27.08
2023-07-20T04:31:41.453Z,27.08
2023-07-20T04:34:30.135Z,27.13
2023-07-20T04:37:18.852Z,27.11
2023-07-20T04:40:10.740Z,27.10
2023-07-20T04:42:59.407Z,26.99
2023-07-20T04:45:48.666Z,27.03
2023-07-20T04:48:37.524Z,26.96
2023-07-20T04:51:26.250Z,27.03
2023-07-20T04:54:15.038Z,27.05
2023-07-20T04:57:06.227Z,27.07
2023-07-20T04:59:55.083Z,27.09
2023-07-20T05:02:43.830Z,27.15
2023-07-20T05:05:32.711Z,27.14
2023-07-20T05:08:23.316Z,27.18
2023-07-20T05:11:12.133Z,27.21
2023-07-20T05:14:02.434Z,27.22
2023-07-20T05:16:51.319Z,27.25
2023-07-20T05:19:41.414Z,27.25
2023-07-20T05:22:32.123Z,27.27
2023-07-20T05:25:23.746Z,27.17
2023-07-20T05:28:12.721Z,27.12
2023-07-20T05:31:05.385Z,27.04
2023-07-20T05:33:54.689Z,26.99
2023-07-20T05:36:43.343Z,26.95
2023-07-20T05:39:32.033Z,26.96
2023-07-20T05:42:20.776Z,26.85
2023-07-20T05:45:10.223Z,26.90
2023-07-20T05:48:00.379Z,26.87
2023-07-20T05:50:49.196Z,26.89
2023-07-20T05:53:39.090Z,26.78
2023-07-20T05:56:27.804Z,26.72
2023-07-20T05:59:16.649Z,26.77
2023-07-20T06:02:05.647Z,26.72
2023-07-20T06:04:55.818Z,26.66
2023-07-20T06:07:44.522Z,26.57
2023-07-20T06:10:33.139Z,26.54
2023-07-20T06:13:21.848Z,26.61
2023-07-20T06:16:10.538Z,26.54
2023-07-20T06:18:59.445Z,26.49
2023-07-20T06:21:50.652Z,26.57
2023-07-20T06:24:39.311Z,26.60
2023-07-20T06:27:29.400Z,26.53
2023-07-20T06:30:20.438Z,26.44
2023-07-20T06:33:10.465Z,26.39
2023-07-20T06:36:01.128Z,26.29
2023-07-20T06:41:43.365Z,26.29
2023-07-20T06:44:32.310Z,26.34
2023-07-20T06:47:23.251Z,26.45
2023-07-20T06:50:17.510Z,26.40
2023-07-20T06:53:07.146Z,26.44
2023-07-20T06:55:58.138Z,26.38
2023-07-20T06:58:46.820Z,26.43
2023-07-20T07:01:35.800Z,26.38
2023-07-20T07:04:24.976Z,26.32
2023-07-20T07:07:13.749Z,26.33
2023-07-20T07:10:05.217Z,26.25
2023-07-20T07:12:55.618Z,26.36
2023-07-20T07:15:45.712Z,26.32
2023-07-20T07:18:36.229Z,26.38
2023-07-20T07:21:26.809Z,26.49
2023-07-20T07:24:19.987Z,26.63
2023-07-20T07:27:09.541Z,26.76
2023-07-20T07:29:59.751Z,26.85
2023-07-20T07:32:48.552Z,26.94
2023-07-20T07:35:37.458Z,27.03
2023-07-20T07:41:20.376Z,27.19
2023-07-20T07:44:09.276Z,27.23
2023-07-20T07:46:59.676Z,27.28
2023-07-20T07:49:48.498Z,27.32
2023-07-20T07:52:37.575Z,27.40
2023-07-20T07:55:27.735Z,27.45
2023-07-20T07:58:18.726Z,27.52
2023-07-20T08:01:07.961Z,27.57
2023-07-20T08:03:58.540Z,27.61
2023-07-20T08:06:47.712Z,27.63
2023-07-20T08:09:37.872Z,27.68
2023-07-20T08:12:26.616Z,27.70
2023-07-20T08:15:15.928Z,27.72
2023-07-20T08:18:05.499Z,27.76
2023-07-20T08:20:55.971Z,27.78
2023-07-20T08:23:44.788Z,27.76
2023-07-20T08:26:34.185Z,27.79
2023-07-20T08:29:23.069Z,27.81
2023-07-20T08:32:12.113Z,27.81
2023-07-20T08:35:01.016Z,27.84
2023-07-20T08:37:51.303Z,27.85
2023-07-20T08:40:43.474Z,27.86
2023-07-20T08:43:34.059Z,27.90
2023-07-20T08:46:23.801Z,27.90
2023-07-20T08:49:13.951Z,27.92
2023-07-20T08:52:04.128Z,27.93
2023-07-20T08:54:55.682Z,27.98
2023-07-20T08:57:48.600Z,27.97
2023-07-20T09:00:40.109Z,28.02
2023-07-20T09:03:29.748Z,28.04
2023-07-20T09:06:20.227Z,28.06
2023-07-20T09:09:09.306Z,28.07
2023-07-20T09:11:59.532Z,28.07
2023-07-20T09:14:48.286Z,28.07
2023-07-20T09:17:37.933Z,28.08
2023-07-20T09:20:26.802Z,28.09
2023-07-20T09:23:16.079Z,28.09
2023-07-20T09:26:13.550Z,28.12
2023-07-20T09:29:03.730Z,28.11
2023-07-20T09:32:02.981Z,28.13
2023-07-20T09:34:54.333Z,28.16
2023-07-20T09:37:43.575Z,28.17
2023-07-20T09:43:26.031Z,28.16
2023-07-20T09:46:59.271Z,28.16
2023-07-20T09:49:30.720Z,28.20
2023-07-20T09:55:13.065Z,28.17
2023-07-20T09:58:03.023Z,28.19
2023-07-20T10:00:55.182Z,28.19
2023-07-20T10:03:48.428Z,28.14
2023-07-20T10:06:38.469Z,28.15
2023-07-20T10:09:28.614Z,28.15
2023-07-20T10:12:18.825Z,28.11
2023-07-20T10:15:14.483Z,28.15
2023-07-20T10:18:07.669Z,28.16
2023-07-20T10:23:52.780Z,28.14
2023-07-20T10:26:42.492Z,28.21
2023-07-20T10:29:32.695Z,28.22
2023-07-20T10:32:22.642Z,28.22
2023-07-20T10:35:21.224Z,28.23
2023-07-20T10:38:11.407Z,28.20
2023-07-20T10:41:00.503Z,28.25
2023-07-20T10:43:50.191Z,28.23
2023-07-20T10:46:47.794Z,28.28
2023-07-20T10:49:38.206Z,28.28
2023-07-20T10:52:27.039Z,28.35
2023-07-20T10:55:19.421Z,28.31
2023-07-20T10:58:12.994Z,28.34
2023-07-20T11:01:04.576Z,28.35
2023-07-20T11:03:54.365Z,28.39
2023-07-20T11:06:46.262Z,28.35
2023-07-20T11:09:38.033Z,28.35
2023-07-20T11:12:29.769Z,28.30
2023-07-20T11:15:18.706Z,28.35
2023-07-20T11:18:17.206Z,28.35
2023-07-20T11:21:07.482Z,28.39
2023-07-20T11:23:58.056Z,28.43
2023-07-20T11:26:47.889Z,28.47
2023-07-20T11:29:38.597Z,28.43
2023-07-20T11:32:28.329Z,28.48
2023-07-20T11:35:16.972Z,28.52
2023-07-20T11:38:06.441Z,28.57
2023-07-20T11:41:01.321Z,28.57
2023-07-20T11:43:50.591Z,28.61
2023-07-20T11:46:41.558Z,28.63
2023-07-20T11:49:31.755Z,28.62
2023-07-20T11:52:21.795Z,28.62
2023-07-20T11:55:11.104Z,28.69
2023-07-20T11:58:06.922Z,28.70
2023-07-20T12:00:58.719Z,28.70
2023-07-20T12:03:51.569Z,28.69
2023-07-20T12:06:40.248Z,28.76
2023-07-20T12:09:41.670Z,28.82
2023-07-20T12:12:35.009Z,28.84
2023-07-20T12:15:25.077Z,28.80
2023-07-20T12:18:13.992Z,28.65
2023-07-20T12:21:05.549Z,28.55
2023-07-20T12:23:54.600Z,28.45
2023-07-20T12:26:43.374Z,28.42
2023-07-20T12:29:33.348Z,28.34
2023-07-20T12:32:22.349Z,28.17
2023-07-20T12:35:12.633Z,27.98
2023-07-20T12:38:03.423Z,27.90
2023-07-20T12:40:52.157Z,27.87
2023-07-20T12:43:41.187Z,27.78
2023-07-20T12:46:30.461Z,27.74
2023-07-20T12:49:19.158Z,27.68
2023-07-20T12:52:09.381Z,27.59
2023-07-20T12:54:59.960Z,27.54
2023-07-20T12:57:49.045Z,27.47
2023-07-20T13:00:37.970Z,27.42
2023-07-20T13:09:09.778Z,27.22
2023-07-20T13:11:59.776Z,27.21
2023-07-20T13:14:48.420Z,27.27
2023-07-20T13:17:37.824Z,27.34
2023-07-20T13:20:27.028Z,27.42
2023-07-20T13:23:15.901Z,27.51
2023-07-20T13:26:04.707Z,27.57
2023-07-20T13:28:56.220Z,27.61
2023-07-20T13:31:45.798Z,27.68
2023-07-20T13:34:34.599Z,27.70
2023-07-20T13:37:23.297Z,27.68
2023-07-20T13:40:14.565Z,27.75
2023-07-20T13:43:03.456Z,27.78
2023-07-20T13:45:53.611Z,27.81
2023-07-20T13:48:42.361Z,27.85
2023-07-20T13:51:31.209Z,27.76
2023-07-20T13:57:11.693Z,27.61
2023-07-20T14:00:01.433Z,27.48
2023-07-20T14:08:36.713Z,27.37
2023-07-20T14:14:17.574Z,27.21
2023-07-20T14:17:06.613Z,27.24
2023-07-20T14:19:57.203Z,27.18
2023-07-20T14:22:46.310Z,27.11
2023-07-20T14:25:38.176Z,27.13
2023-07-20T14:28:27.277Z,27.12
2023-07-20T14:31:16.040Z,27.10
2023-07-20T14:34:04.773Z,27.08
2023-07-20T14:36:54.889Z,26.98
2023-07-20T14:39:43.638Z,26.96
2023-07-20T14:42:33.341Z,26.93
2023-07-20T14:45:22.071Z,26.89
2023-07-20T14:48:10.997Z,26.94
2023-07-20T14:53:52.745Z,26.96
2023-07-20T14:56:42.034Z,27.02
2023-07-20T14:59:30.747Z,27.01
2023-07-20T15:02:19.572Z,26.98
2023-07-20T15:05:10.297Z,26.95
2023-07-20T15:07:59.056Z,26.93
2023-07-20T15:10:49.126Z,26.93
2023-07-20T15:13:37.810Z,26.93
2023-07-20T15:16:27.127Z,26.98
2023-07-20T15:19:17.117Z,26.99
2023-07-20T15:22:07.443Z,26.91
2023-07-20T15:24:56.548Z,26.94
2023-07-20T15:27:50.135Z,26.95
2023-07-20T15:33:31.486Z,27.12
2023-07-20T15:36:20.105Z,27.16
2023-07-20T15:39:08.809Z,27.19
2023-07-20T15:41:58.283Z,27.23
2023-07-20T15:44:50.223Z,27.18
2023-07-20T15:47:38.998Z,27.19
2023-07-20T15:50:28.178Z,27.19
2023-07-20T15:53:16.856Z,27.24
2023-07-20T15:56:05.883Z,27.22
2023-07-20T15:58:54.625Z,27.22
2023-07-20T16:01:46.555Z,27.23
2023-07-20T16:04:35.652Z,27.27
2023-07-20T16:07:24.271Z,27.26
2023-07-20T16:10:13.345Z,27.33
2023-07-20T16:13:04.179Z,27.40
2023-07-20T16:15:54.479Z,27.44
2023-07-20T16:18:44.803Z,27.52
2023-07-20T16:21:34.207Z,27.56
2023-07-20T16:24:24.557Z,27.56
2023-07-20T16:27:13.323Z,27.51
2023-07-20T16:30:02.647Z,27.57
2023-07-20T16:32:52.000Z,27.55
2023-07-20T16:38:43.171Z,27.59
2023-07-20T16:44:23.812Z,27.58
2023-07-20T16:47:12.529Z,27.57
2023-07-20T16:50:01.326Z,27.67
2023-07-20T16:52:51.460Z,27.73
2023-07-20T16:55:42.013Z,27.84
2023-07-20T16:58:30.881Z,27.95
2023-07-20T17:01:20.019Z,27.94
2023-07-20T17:04:08.925Z,27.95
2023-07-20T17:06:59.648Z,28.05
2023-07-20T17:09:50.642Z,28.02
2023-07-20T17:12:40.816Z,28.10
2023-07-20T17:15:29.505Z,28.00
2023-07-20T17:18:19.804Z,28.03
2023-07-20T17:21:08.696Z,27.95
2023-07-20T17:27:18.438Z,27.92
2023-07-20T17:30:00.122Z,27.86
2023-07-20T17:32:48.891Z,27.90
2023-07-20T17:35:37.658Z,27.87
2023-07-20T17:41:18.237Z,27.82
2023-07-20T17:44:09.367Z,27.81
2023-07-20T17:49:49.664Z,27.75
2023-07-20T17:52:38.318Z,27.75
2023-07-20T17:55:27.544Z,27.76
2023-07-20T17:58:16.256Z,27.78
2023-07-20T18:01:06.430Z,27.75
2023-07-20T18:03:55.185Z,27.77
2023-07-20T18:06:43.969Z,27.77
2023-07-20T18:09:32.727Z,27.75
2023-07-20T18:12:21.459Z,27.69
2023-07-20T18:15:10.854Z,27.76
2023-07-20T18:18:01.217Z,27.77
2023-07-20T18:20:50.090Z,27.74
2023-07-20T18:23:38.825Z,27.71
2023-07-20T18:26:27.635Z,27.70
2023-07-20T18:29:19.061Z,27.69
2023-07-20T18:32:08.722Z,27.68
2023-07-20T18:35:02.865Z,27.68
2023-07-20T18:37:51.609Z,27.66
2023-07-20T18:40:41.115Z,27.65
2023-07-20T18:43:30.118Z,27.65
2023-07-20T18:46:19.398Z,27.74
2023-07-20T18:49:08.132Z,27.66
2023-07-20T18:51:58.726Z,27.75
2023-07-20T18:54:47.368Z,27.94
2023-07-20T18:57:36.445Z,27.90
2023-07-20T19:00:25.207Z,27.86
2023-07-20T19:03:14.113Z,27.83
2023-07-20T19:06:03.452Z,27.86
2023-07-20T19:08:54.144Z,27.85
2023-07-20T19:14:34.674Z,27.72
2023-07-20T19:17:26.165Z,27.71
2023-07-20T19:20:16.556Z,27.72
2023-07-20T19:23:05.418Z,27.81
2023-07-20T19:25:55.839Z,27.82
2023-07-20T19:28:44.708Z,27.87
2023-07-20T19:31:33.397Z,27.89
2023-07-20T19:34:22.086Z,27.96
2023-07-20T19:37:11.922Z,27.88
2023-07-20T19:40:01.860Z,27.90
2023-07-20T19:42:52.134Z,27.95
2023-07-20T19:45:40.821Z,27.89
2023-07-20T19:48:29.456Z,27.94
2023-07-20T19:51:18.233Z,27.90
2023-07-20T19:56:59.254Z,27.81
2023-07-20T19:59:49.609Z,27.77
2023-07-20T20:05:31.103Z,27.76
2023-07-20T20:08:19.817Z,27.77
2023-07-20T20:14:00.082Z,27.73
2023-07-20T20:16:50.177Z,27.73
2023-07-20T20:19:38.985Z,27.77
2023-07-20T20:22:27.847Z,27.71
2023-07-20T20:25:16.743Z,27.73
2023-07-20T20:28:05.654Z,27.76
2023-07-20T20:30:54.925Z,27.73
2023-07-20T20:33:45.026Z,27.72
2023-07-20T20:36:33.787Z,27.73
2023-07-20T20:39:22.552Z,27.69
2023-07-20T20:42:12.133Z,27.69
2023-07-20T20:45:00.809Z,27.76
2023-07-20T20:47:49.767Z,27.76
2023-07-20T20:50:48.247Z,27.74
2023-07-20T20:53:37.082Z,27.71
2023-07-20T20:56:27.308Z,27.81
2023-07-20T20:59:20.816Z,27.77
2023-07-20T21:02:10.532Z,27.66
2023-07-20T21:04:59.606Z,27.69
2023-07-20T21:08:04.981Z,27.69
2023-07-20T21:10:54.556Z,27.74
2023-07-20T21:13:43.325Z,27.78
2023-07-20T21:16:32.092Z,27.80
2023-07-20T21:19:21.287Z,27.76
2023-07-20T21:22:10.104Z,27.73
2023-07-20T21:25:00.188Z,27.69
2023-07-20T21:27:48.921Z,27.70
2023-07-20T21:30:38.381Z,27.67
2023-07-20T21:33:27.097Z,27.62
2023-07-20T21:36:15.949Z,27.60
2023-07-20T21:39:04.970Z,27.61
2023-07-20T21:41:55.155Z,27.54
2023-07-20T21:44:45.946Z,27.53
2023-07-20T21:47:34.790Z,27.44
2023-07-20T21:50:23.446Z,27.47
2023-07-20T21:53:12.119Z,27.49
2023-07-20T21:56:00.873Z,27.46
2023-07-20T21:58:50.908Z,27.54
2023-07-20T22:04:31.284Z,27.44
2023-07-20T22:07:21.174Z,27.48
2023-07-20T22:10:10.520Z,27.39
2023-07-20T22:13:01.691Z,27.50
2023-07-20T22:15:52.573Z,27.60
2023-07-20T22:18:41.653Z,27.62
2023-07-20T22:21:30.439Z,27.60
2023-07-20T22:24:19.163Z,27.59
2023-07-20T22:27:10.055Z,27.59
2023-07-20T22:29:59.245Z,27.55
2023-07-20T22:32:49.316Z,27.52
2023-07-20T22:35:40.470Z,27.43
2023-07-20T22:38:29.200Z,27.44
2023-07-20T22:41:17.923Z,27.37
2023-07-20T22:44:06.684Z,27.35
2023-07-20T22:46:55.637Z,27.34
2023-07-20T22:49:45.961Z,27.39
2023-07-20T22:52:34.852Z,27.35
2023-07-20T22:55:23.685Z,27.38
2023-07-20T22:58:12.390Z,27.33
2023-07-20T23:01:01.153Z,27.37
2023-07-20T23:03:50.045Z,27.30
2023-07-20T23:06:40.230Z,27.31
2023-07-20T23:09:29.095Z,27.41
2023-07-20T23:12:17.814Z,27.37
2023-07-20T23:15:07.728Z,27.35
2023-07-20T23:17:59.872Z,27.30
2023-07-20T23:20:49.910Z,27.31
2023-07-20T23:23:40.138Z,27.28
2023-07-20T23:26:29.319Z,27.18
2023-07-20T23:29:18.241Z,27.23
2023-07-20T23:32:07.947Z,27.26
2023-07-20T23:34:56.737Z,27.30
2023-07-20T23:37:48.183Z,27.29
2023-07-20T23:40:38.250Z,27.24
2023-07-20T23:43:26.890Z,27.13
2023-07-20T23:46:24.168Z,27.12
2023-07-20T23:49:15.108Z,27.12
2023-07-20T23:52:03.814Z,27.14
2023-07-20T23:54:52.489Z,27.13
2023-07-20T23:57:44.852Z,27.23
